Time;durP1;ratioP1;P1;durP2;ratioP2;P2;SDS_P1;SDS_P2;PMS_P1;PMS_P2;Temp;Humidity;BMP_temperature;BMP_pressure;BME280_temperature;BME280_humidity;BME280_pressure;Samples;Min_cycle;Max_cycle;Signal;HPM_P1;HPM_P2
2022/06/01 00:01:50;;;;;;;5.40;2.15;;;9.70;99.90;;;;;;4987069;28;20090;-58
2022/06/01 00:04:17;;;;;;;3.05;2.15;;;9.70;99.90;;;;;;4984665;28;20051;-57
2022/06/01 00:06:49;;;;;;;4.03;2.50;;;9.60;99.90;;;;;;4987123;28;20126;-57
2022/06/01 00:09:15;;;;;;;4.30;2.38;;;9.60;99.90;;;;;;4979393;28;20125;-58
2022/06/01 00:11:42;;;;;;;3.97;2.00;;;9.60;99.90;;;;;;4985892;28;20058;-57
2022/06/01 00:14:09;;;;;;;5.10;3.17;;;9.60;99.90;;;;;;4979174;28;20522;-57
2022/06/01 00:16:36;;;;;;;4.47;2.35;;;9.60;99.90;;;;;;4980328;28;20042;-58
2022/06/01 00:19:03;;;;;;;3.35;1.92;;;9.50;99.90;;;;;;4986535;28;20100;-54
2022/06/01 00:21:29;;;;;;;3.95;2.05;;;9.60;99.90;;;;;;4985307;28;20101;-55
2022/06/01 00:23:56;;;;;;;3.10;2.40;;;9.60;99.90;;;;;;4985560;28;20077;-59
2022/06/01 00:26:23;;;;;;;3.90;1.95;;;9.60;99.90;;;;;;4985396;28;20058;-53
2022/06/01 00:28:50;;;;;;;4.22;3.65;;;9.60;99.90;;;;;;4994250;28;20177;-55
2022/06/01 00:31:17;;;;;;;2.95;2.38;;;9.60;99.90;;;;;;4989279;28;20085;-57
2022/06/01 00:33:44;;;;;;;5.63;2.60;;;9.70;99.90;;;;;;4989428;28;20057;-57
2022/06/01 00:36:11;;;;;;;5.18;2.40;;;9.70;99.90;;;;;;4990494;28;20046;-56
2022/06/01 00:38:37;;;;;;;4.50;2.90;;;9.70;99.90;;;;;;4987599;28;20182;-57
2022/06/01 00:41:04;;;;;;;3.30;2.30;;;9.80;99.90;;;;;;4989820;28;20092;-55
2022/06/01 00:43:57;;;;;;;4.35;2.38;;;9.80;99.90;;;;;;4989986;28;20046;-57
2022/06/01 00:46:24;;;;;;;3.13;2.20;;;9.80;99.90;;;;;;4985797;28;20077;-56
2022/06/01 00:48:55;;;;;;;4.43;2.88;;;9.80;99.90;;;;;;4986849;28;20054;-58
2022/06/01 00:51:23;;;;;;;5.07;2.38;;;9.70;99.90;;;;;;4986820;28;20086;-58
2022/06/01 00:53:51;;;;;;;3.33;2.78;;;9.60;99.90;;;;;;4988850;28;20148;-58
2022/06/01 00:56:43;;;;;;;4.70;2.60;;;9.60;99.90;;;;;;4990249;28;20141;-58
2022/06/01 00:59:11;;;;;;;3.75;2.75;;;9.50;99.90;;;;;;4991267;28;20516;-56
2022/06/01 01:01:38;;;;;;;3.70;2.10;;;9.50;99.90;;;;;;4987022;28;20054;-55
2022/06/01 01:04:04;;;;;;;4.90;2.70;;;9.40;99.90;;;;;;4979742;28;20065;-59
2022/06/01 01:06:36;;;;;;;3.20;2.45;;;9.40;99.90;;;;;;4983735;28;20047;-57
2022/06/01 01:09:03;;;;;;;2.92;1.95;;;9.40;99.90;;;;;;4981449;28;20497;-55
2022/06/01 01:11:37;;;;;;;2.58;2.35;;;9.40;99.90;;;;;;4987243;28;20133;-57
2022/06/01 01:14:06;;;;;;;5.95;2.75;;;9.40;99.90;;;;;;4983893;28;20145;-56
2022/06/01 01:16:34;;;;;;;3.42;2.80;;;9.40;99.90;;;;;;4984014;28;20070;-56
2022/06/01 01:19:01;;;;;;;9.85;3.28;;;9.50;99.90;;;;;;4995592;28;20225;-57
2022/06/01 01:21:46;;;;;;;6.25;2.60;;;9.50;99.90;;;;;;4986666;28;20078;-57
2022/06/01 01:24:13;;;;;;;5.35;3.00;;;9.60;99.90;;;;;;4989374;28;20074;-57
2022/06/01 01:26:40;;;;;;;6.60;2.65;;;9.50;99.90;;;;;;4989923;28;20188;-57
2022/06/01 01:29:09;;;;;;;7.15;2.80;;;9.60;99.90;;;;;;4996293;28;20085;-56
2022/06/01 01:31:37;;;;;;;3.72;2.45;;;9.60;99.90;;;;;;4982856;28;20046;-57
2022/06/01 01:34:04;;;;;;;4.72;2.90;;;9.60;99.90;;;;;;4985864;28;20070;-53
2022/06/01 01:36:36;;;;;;;5.35;2.92;;;9.60;99.90;;;;;;4982177;28;20039;-56
2022/06/01 01:39:09;;;;;;;3.13;2.20;;;9.50;99.90;;;;;;4982100;28;20046;-56
2022/06/01 01:41:52;;;;;;;4.45;2.25;;;9.50;99.90;;;;;;4988026;28;20124;-56
2022/06/01 01:44:52;;;;;;;3.92;2.55;;;9.50;99.90;;;;;;4988929;28;20145;-56
2022/06/01 01:47:19;;;;;;;4.25;2.25;;;9.50;99.90;;;;;;4987993;28;20077;-55
2022/06/01 01:49:46;;;;;;;3.10;2.20;;;9.50;99.90;;;;;;4988816;28;20051;-57
2022/06/01 01:52:15;;;;;;;2.72;1.75;;;9.50;99.90;;;;;;4980584;28;20523;-56
2022/06/01 01:54:46;;;;;;;2.75;1.85;;;9.50;99.90;;;;;;4980177;28;20459;-53
2022/06/01 01:57:22;;;;;;;3.90;2.03;;;9.60;99.90;;;;;;4980800;28;20054;-57
2022/06/01 01:59:55;;;;;;;4.70;1.83;;;9.50;99.90;;;;;;4987583;28;20050;-56
2022/06/01 02:02:51;;;;;;;2.85;1.95;;;9.50;99.90;;;;;;4984941;28;20042;-56
2022/06/01 02:08:30;;;;;;;4.50;1.70;;;9.50;99.90;;;;;;4987622;28;20050;-56
2022/06/01 02:13:56;;;;;;;3.15;2.30;;;9.50;99.90;;;;;;4974001;28;20121;-55
2022/06/01 02:16:25;;;;;;;2.92;2.00;;;9.50;99.90;;;;;;4982241;28;20557;-54
2022/06/01 02:18:54;;;;;;;2.83;2.10;;;9.40;99.90;;;;;;4982949;28;20051;-57
2022/06/01 02:21:22;;;;;;;3.75;2.30;;;9.40;99.90;;;;;;4992708;28;20150;-55
2022/06/01 02:23:49;;;;;;;11.90;2.13;;;9.30;99.90;;;;;;4987230;28;20046;-55
2022/06/01 02:26:15;;;;;;;4.85;2.05;;;9.40;99.90;;;;;;4985002;28;20497;-57
2022/06/01 02:28:42;;;;;;;3.03;1.92;;;9.40;99.90;;;;;;4984101;28;20126;-55
2022/06/01 02:31:09;;;;;;;2.65;1.92;;;9.40;99.90;;;;;;4986752;28;20121;-57
2022/06/01 02:33:36;;;;;;;3.00;2.70;;;9.40;99.90;;;;;;4988333;28;20515;-57
2022/06/01 02:36:04;;;;;;;3.20;1.90;;;9.50;99.90;;;;;;4991747;28;20092;-55
2022/06/01 02:38:40;;;;;;;3.58;2.17;;;9.30;99.90;;;;;;4993478;28;20089;-55
2022/06/01 02:41:06;;;;;;;5.40;2.03;;;9.30;99.90;;;;;;4973996;28;20141;-56
2022/06/01 02:43:48;;;;;;;2.35;1.90;;;9.30;99.90;;;;;;4987831;28;20173;-56
2022/06/01 02:46:15;;;;;;;2.85;1.83;;;9.30;99.90;;;;;;4985605;28;20734;-55
2022/06/01 02:48:43;;;;;;;8.45;1.98;;;9.20;99.90;;;;;;4980923;28;20042;-54
2022/06/01 02:51:10;;;;;;;3.60;1.65;;;9.20;99.90;;;;;;4984976;28;20141;-57
2022/06/01 02:53:37;;;;;;;3.08;1.85;;;9.20;99.90;;;;;;4995002;28;20082;-56
2022/06/01 02:56:04;;;;;;;4.07;1.95;;;9.10;99.90;;;;;;4984446;28;20488;-56
2022/06/01 02:58:31;;;;;;;3.38;1.77;;;9.10;99.90;;;;;;4987550;28;20073;-55
2022/06/01 03:00:58;;;;;;;2.22;1.70;;;9.10;99.90;;;;;;4978469;28;20262;-55
2022/06/01 03:03:25;;;;;;;2.80;1.67;;;9.10;99.90;;;;;;4978624;28;20050;-55
2022/06/01 03:05:52;;;;;;;5.15;2.00;;;9.00;99.90;;;;;;4985306;28;20060;-55
2022/06/01 03:08:19;;;;;;;3.72;2.30;;;8.90;99.90;;;;;;4986935;28;20140;-56
2022/06/01 03:10:45;;;;;;;3.17;2.30;;;8.90;99.90;;;;;;4980552;28;20137;-55
2022/06/01 03:13:19;;;;;;;2.75;1.90;;;8.90;99.90;;;;;;4981006;28;20517;-56
2022/06/01 03:15:46;;;;;;;2.13;1.40;;;8.90;99.90;;;;;;4987336;28;20088;-56
2022/06/01 03:18:13;;;;;;;3.25;1.80;;;8.90;99.90;;;;;;4987106;28;20092;-56
2022/06/01 03:20:40;;;;;;;1.80;1.50;;;8.90;99.90;;;;;;4986140;28;20125;-55
2022/06/01 03:23:06;;;;;;;2.75;1.48;;;8.90;99.90;;;;;;4985464;28;20100;-54
2022/06/01 03:25:34;;;;;;;2.63;2.15;;;8.80;99.90;;;;;;4979479;28;20116;-55
2022/06/01 03:28:00;;;;;;;3.72;1.73;;;8.70;99.90;;;;;;4987211;28;20146;-56
2022/06/01 03:30:28;;;;;;;2.70;1.63;;;8.50;99.90;;;;;;4978966;28;20121;-56
2022/06/01 03:32:56;;;;;;;3.28;1.50;;;8.60;99.90;;;;;;4986666;28;20054;-56
2022/06/01 03:35:25;;;;;;;5.07;1.80;;;8.70;99.90;;;;;;4982153;28;20073;-56
2022/06/01 03:37:52;;;;;;;10.25;1.83;;;8.60;99.90;;;;;;4986440;28;20058;-56
2022/06/01 03:40:20;;;;;;;4.07;2.03;;;8.70;99.90;;;;;;4984889;28;20573;-57
2022/06/01 03:42:46;;;;;;;2.53;1.60;;;8.70;99.90;;;;;;4986156;28;20051;-56
2022/06/01 03:47:59;;;;;;;2.58;2.17;;;8.70;99.90;;;;;;4986388;28;20050;-57
2022/06/01 03:50:26;;;;;;;2.17;1.80;;;8.70;99.90;;;;;;4985023;28;20517;-56
2022/06/01 03:52:52;;;;;;;4.85;2.40;;;8.70;99.90;;;;;;4986963;28;20077;-57
2022/06/01 03:55:20;;;;;;;3.40;1.90;;;8.60;99.90;;;;;;4985316;28;20050;-56
2022/06/01 03:57:48;;;;;;;3.53;1.45;;;8.60;99.90;;;;;;4987007;28;20058;-56
2022/06/01 04:00:17;;;;;;;3.85;1.80;;;8.70;99.90;;;;;;4984941;28;20129;-56
2022/06/01 04:02:44;;;;;;;5.20;2.00;;;8.60;99.90;;;;;;4984097;28;20054;-55
2022/06/01 04:05:11;;;;;;;3.80;1.80;;;8.70;99.90;;;;;;4987407;28;20078;-57
2022/06/01 04:07:38;;;;;;;2.95;2.05;;;8.60;99.90;;;;;;4990416;28;20046;-56
2022/06/01 04:10:05;;;;;;;3.72;2.60;;;8.60;99.90;;;;;;4986731;28;20122;-55
2022/06/01 04:12:32;;;;;;;2.97;1.92;;;8.60;99.90;;;;;;4984550;28;20082;-54
2022/06/01 04:14:59;;;;;;;2.40;1.70;;;8.50;99.90;;;;;;4988834;28;20121;-58
2022/06/01 04:17:25;;;;;;;5.30;2.25;;;8.50;99.90;;;;;;4990935;28;20054;-57
2022/06/01 04:19:52;;;;;;;5.00;2.25;;;8.60;99.90;;;;;;4990470;28;20129;-56
2022/06/01 04:22:19;;;;;;;3.40;1.95;;;8.60;99.90;;;;;;4990526;28;20077;-56
2022/06/01 04:24:46;;;;;;;4.65;2.35;;;8.60;99.90;;;;;;4982248;28;20137;-57
2022/06/01 04:27:13;;;;;;;3.00;2.15;;;8.60;99.90;;;;;;4988400;28;20242;-56
2022/06/01 04:29:39;;;;;;;3.55;1.98;;;8.60;99.90;;;;;;4988543;28;20137;-56
2022/06/01 04:32:09;;;;;;;4.63;2.00;;;8.60;99.90;;;;;;4985459;28;20066;-55
2022/06/01 04:34:36;;;;;;;2.53;1.77;;;8.50;99.90;;;;;;4984844;28;20038;-56
2022/06/01 04:37:03;;;;;;;1.77;1.67;;;8.50;99.90;;;;;;4983038;28;20050;-57
2022/06/01 04:39:30;;;;;;;3.08;1.95;;;8.60;99.90;;;;;;4988321;28;20137;-56
2022/06/01 04:41:56;;;;;;;2.65;1.42;;;8.60;99.90;;;;;;4983928;28;20085;-55
2022/06/01 04:44:23;;;;;;;9.57;2.20;;;8.50;99.90;;;;;;4983515;28;20092;-56
2022/06/01 04:46:50;;;;;;;3.47;2.05;;;8.50;99.90;;;;;;4981015;28;20057;-55
2022/06/01 04:49:17;;;;;;;1.98;1.60;;;8.50;99.90;;;;;;4987390;28;20617;-56
2022/06/01 04:51:43;;;;;;;4.03;1.73;;;8.50;99.90;;;;;;4985387;28;20055;-56
2022/06/01 04:54:10;;;;;;;3.10;2.10;;;8.60;99.90;;;;;;4984219;28;20136;-55
2022/06/01 04:56:37;;;;;;;8.25;2.72;;;8.60;99.90;;;;;;4989354;28;20134;-55
2022/06/01 04:59:04;;;;;;;3.53;2.38;;;8.70;99.90;;;;;;4983980;28;20186;-56
2022/06/01 05:01:30;;;;;;;6.45;2.30;;;8.80;99.90;;;;;;4990202;28;20118;-57
2022/06/01 05:03:57;;;;;;;4.80;1.90;;;8.80;99.90;;;;;;4990028;28;20056;-57
2022/06/01 05:06:24;;;;;;;5.03;1.95;;;8.90;99.90;;;;;;4990163;28;20501;-56
2022/06/01 05:08:51;;;;;;;14.02;2.90;;;9.00;99.90;;;;;;4989867;28;20061;-56
2022/06/01 05:11:19;;;;;;;9.02;2.65;;;9.00;99.90;;;;;;4989990;28;20510;-56
2022/06/01 05:13:47;;;;;;;2.63;1.73;;;9.00;99.90;;;;;;4988007;28;20146;-56
2022/06/01 05:16:13;;;;;;;3.08;1.85;;;9.10;99.90;;;;;;4979123;28;20078;-55
2022/06/01 05:18:40;;;;;;;3.47;1.98;;;9.20;99.90;;;;;;4986290;28;20100;-57
2022/06/01 05:21:07;;;;;;;9.60;2.20;;;9.20;99.90;;;;;;4986014;28;20124;-55
2022/06/01 05:23:34;;;;;;;2.60;2.00;;;9.20;99.90;;;;;;4988469;28;20549;-56
2022/06/01 05:26:01;;;;;;;4.63;2.22;;;9.30;99.90;;;;;;4985205;28;20121;-57
2022/06/01 05:28:28;;;;;;;10.10;2.10;;;9.30;99.90;;;;;;4988702;28;20081;-57
2022/06/01 05:31:10;;;;;;;3.03;1.70;;;9.40;99.90;;;;;;4984071;28;20115;-55
2022/06/01 05:33:37;;;;;;;5.68;2.03;;;9.30;99.90;;;;;;4986629;28;20046;-57
2022/06/01 05:36:04;;;;;;;6.45;2.30;;;9.30;99.90;;;;;;4986037;28;20565;-57
2022/06/01 05:38:31;;;;;;;3.00;1.80;;;9.40;99.90;;;;;;5004062;28;20104;-56
2022/06/01 05:40:57;;;;;;;8.73;2.72;;;9.50;99.90;;;;;;4980408;28;20051;-58
2022/06/01 05:43:24;;;;;;;6.85;2.22;;;9.50;99.90;;;;;;4981749;28;20101;-57
2022/06/01 05:45:51;;;;;;;4.25;2.35;;;9.50;99.90;;;;;;4987768;28;20509;-54
2022/06/01 05:48:19;;;;;;;8.13;1.90;;;9.50;99.90;;;;;;4986256;28;20243;-55
2022/06/01 05:50:45;;;;;;;2.58;1.73;;;9.50;99.90;;;;;;4982390;28;20576;-56
2022/06/01 05:53:12;;;;;;;3.65;1.80;;;9.60;99.90;;;;;;5000318;28;20513;-56
2022/06/01 05:55:39;;;;;;;9.52;3.08;;;9.60;99.90;;;;;;4986682;28;20438;-56
2022/06/01 05:58:16;;;;;;;5.13;2.88;;;9.60;99.90;;;;;;4985931;28;20100;-56
2022/06/01 06:00:44;;;;;;;6.75;2.38;;;9.60;99.90;;;;;;4985966;28;20074;-53
2022/06/01 06:03:11;;;;;;;12.95;2.97;;;9.60;99.90;;;;;;4986349;28;20038;-51
2022/06/01 06:06:23;;;;;;;4.47;2.78;;;9.70;99.90;;;;;;4986052;28;20056;-55
2022/06/01 06:08:25;;;;;;;5.63;2.78;;;9.70;99.90;;;;;;4973693;28;20120;-55
2022/06/01 06:10:52;;;;;;;4.28;2.85;;;9.70;99.90;;;;;;4984845;28;20073;-59
2022/06/01 06:13:19;;;;;;;3.47;2.42;;;9.70;99.90;;;;;;4984209;28;20137;-57
2022/06/01 06:15:45;;;;;;;6.90;2.58;;;9.70;99.90;;;;;;4987242;28;20054;-55
2022/06/01 06:18:13;;;;;;;4.95;3.03;;;9.80;99.90;;;;;;4985346;28;20046;-55
2022/06/01 06:20:43;;;;;;;4.82;3.03;;;9.90;99.90;;;;;;5001136;28;20077;-55
2022/06/01 06:23:11;;;;;;;8.18;3.33;;;10.00;99.90;;;;;;4984274;28;20129;-54
2022/06/01 06:25:40;;;;;;;6.45;2.72;;;10.10;99.90;;;;;;4987720;28;20464;-55
2022/06/01 06:28:06;;;;;;;7.47;3.08;;;10.10;99.90;;;;;;4986552;28;20082;-55
2022/06/01 06:30:34;;;;;;;6.65;2.50;;;10.20;99.90;;;;;;4987592;28;20096;-55
2022/06/01 06:33:01;;;;;;;6.50;2.95;;;10.20;99.90;;;;;;4983469;28;20078;-56
2022/06/01 06:35:28;;;;;;;5.05;2.55;;;10.20;99.90;;;;;;4983856;28;20078;-56
2022/06/01 06:37:55;;;;;;;5.00;2.42;;;10.20;99.90;;;;;;4986760;28;20101;-56
2022/06/01 06:40:21;;;;;;;6.10;2.67;;;10.30;99.90;;;;;;4983337;28;20461;-57
2022/06/01 06:42:48;;;;;;;5.05;2.72;;;10.30;99.90;;;;;;4983272;28;20050;-55
2022/06/01 06:45:15;;;;;;;4.68;2.65;;;10.40;99.90;;;;;;4987861;28;20093;-59
2022/06/01 06:47:42;;;;;;;6.72;2.80;;;10.50;99.90;;;;;;4986806;28;20129;-56
2022/06/01 06:50:10;;;;;;;13.20;2.88;;;10.60;99.90;;;;;;4637994;28;10000366;-56
2022/06/01 06:52:37;;;;;;;5.53;2.50;;;10.80;99.90;;;;;;4984285;28;20133;-54
2022/06/01 06:55:04;;;;;;;4.22;2.70;;;10.80;99.90;;;;;;4983127;28;20057;-55
2022/06/01 06:57:31;;;;;;;8.48;2.80;;;10.90;99.90;;;;;;4978367;28;20042;-57
2022/06/01 06:59:58;;;;;;;5.47;2.97;;;11.00;99.90;;;;;;4995643;28;20517;-61
2022/06/01 07:02:25;;;;;;;8.85;2.72;;;11.00;99.90;;;;;;4985194;28;20065;-56
2022/06/01 07:04:51;;;;;;;6.50;2.72;;;11.10;99.90;;;;;;4981449;28;20054;-57
2022/06/01 07:07:18;;;;;;;6.10;2.85;;;11.20;99.90;;;;;;4976892;28;20054;-56
2022/06/01 07:09:45;;;;;;;4.50;3.42;;;11.30;99.90;;;;;;4981735;28;20489;-56
2022/06/01 07:12:12;;;;;;;9.10;3.35;;;11.40;99.90;;;;;;4976818;28;20078;-54
2022/06/01 07:14:39;;;;;;;7.63;2.85;;;11.40;99.90;;;;;;4980048;28;20046;-59
2022/06/01 07:17:05;;;;;;;5.78;2.90;;;11.50;99.90;;;;;;4978465;28;20557;-59
2022/06/01 07:19:33;;;;;;;9.35;2.83;;;11.50;99.90;;;;;;4980811;28;20165;-57
2022/06/01 07:22:00;;;;;;;8.90;3.05;;;11.50;99.90;;;;;;4984619;28;20129;-56
2022/06/01 07:24:27;;;;;;;11.07;3.15;;;11.60;99.90;;;;;;4999794;28;20085;-57
2022/06/01 07:26:53;;;;;;;4.10;2.92;;;11.70;99.90;;;;;;4978627;28;20077;-56
2022/06/01 07:29:20;;;;;;;5.18;3.50;;;11.70;99.90;;;;;;4999697;28;20145;-59
2022/06/01 07:31:47;;;;;;;5.45;3.00;;;11.60;99.90;;;;;;4977369;28;20046;-58
2022/06/01 07:34:14;;;;;;;6.70;3.85;;;11.60;99.90;;;;;;4983957;28;20054;-56
2022/06/01 07:36:41;;;;;;;6.97;3.85;;;11.70;99.90;;;;;;4978043;28;20053;-58
2022/06/01 07:44:52;;;;;;;6.80;3.23;;;11.90;99.90;;;;;;4983059;28;20109;-57
2022/06/01 07:47:20;;;;;;;8.32;4.00;;;11.90;99.90;;;;;;4977219;28;20154;-58
2022/06/01 07:50:08;;;;;;;4.60;3.72;;;12.10;99.90;;;;;;4983858;28;20042;-57
2022/06/01 07:52:55;;;;;;;5.85;2.72;;;12.20;99.90;;;;;;4978492;28;20600;-59
2022/06/01 07:55:22;;;;;;;4.10;3.20;;;12.10;99.90;;;;;;4982851;28;20065;-57
2022/06/01 07:57:49;;;;;;;8.50;3.38;;;12.20;99.90;;;;;;4980379;28;20078;-57
2022/06/01 08:00:16;;;;;;;7.28;3.63;;;12.10;99.90;;;;;;4980515;28;20096;-55
2022/06/01 08:02:43;;;;;;;7.53;3.25;;;12.20;99.90;;;;;;4981379;28;20125;-57
2022/06/01 08:05:10;;;;;;;5.95;3.35;;;12.20;99.90;;;;;;4993465;28;20074;-54
2022/06/01 08:07:37;;;;;;;7.30;3.05;;;12.40;99.90;;;;;;4982496;28;20137;-59
2022/06/01 08:10:04;;;;;;;4.57;3.00;;;12.40;99.90;;;;;;4981797;28;20133;-56
2022/06/01 08:15:16;;;;;;;6.97;2.78;;;12.50;99.90;;;;;;4969830;28;20066;-57
2022/06/01 08:17:51;;;;;;;8.43;2.72;;;12.60;99.90;;;;;;4983499;28;20046;-57
2022/06/01 08:20:18;;;;;;;9.43;3.17;;;12.70;99.90;;;;;;4973077;28;20085;-58
2022/06/01 08:22:45;;;;;;;10.88;3.53;;;12.80;99.90;;;;;;4983772;28;20076;-58
2022/06/01 08:25:13;;;;;;;7.15;3.10;;;12.80;99.90;;;;;;4985362;28;20051;-57
2022/06/01 08:27:40;;;;;;;6.00;3.78;;;12.90;99.90;;;;;;4984664;28;20050;-56
2022/06/01 08:30:07;;;;;;;8.18;4.43;;;12.90;99.90;;;;;;4984766;28;20047;-55
2022/06/01 08:32:33;;;;;;;6.85;3.00;;;12.90;99.90;;;;;;4984672;28;20568;-57
2022/06/01 08:35:01;;;;;;;4.95;3.30;;;12.90;99.90;;;;;;4984556;28;20074;-56
2022/06/01 08:37:28;;;;;;;7.90;3.15;;;12.90;99.90;;;;;;4978784;28;20250;-58
2022/06/01 08:39:54;;;;;;;7.38;2.95;;;13.00;99.90;;;;;;4981741;28;20058;-58
2022/06/01 08:42:23;;;;;;;12.82;3.35;;;13.00;99.90;;;;;;4978780;28;20133;-58
2022/06/01 08:44:50;;;;;;;5.18;3.50;;;13.10;99.90;;;;;;4979450;28;20533;-57
2022/06/01 08:47:22;;;;;;;12.73;4.32;;;12.90;99.90;;;;;;4981518;28;20141;-55
2022/06/01 08:49:49;;;;;;;11.35;3.65;;;13.00;99.90;;;;;;4984869;28;20074;-52
2022/06/01 08:52:16;;;;;;;6.63;3.08;;;13.00;99.90;;;;;;4985146;28;20100;-54
2022/06/01 08:54:43;;;;;;;4.60;2.95;;;13.10;99.90;;;;;;4988060;28;20050;-64
2022/06/01 08:57:20;;;;;;;5.63;2.90;;;13.10;99.90;;;;;;4983118;28;20089;-58
2022/06/01 09:00:08;;;;;;;7.93;2.92;;;13.20;99.90;;;;;;4988151;28;20060;-52
2022/06/01 09:02:53;;;;;;;8.75;2.95;;;13.20;99.90;;;;;;4987441;28;20046;-54
2022/06/01 09:05:39;;;;;;;4.07;2.60;;;13.40;99.90;;;;;;4986377;28;20078;-54
2022/06/01 09:08:30;;;;;;;4.30;2.78;;;13.40;99.90;;;;;;4987170;28;20478;-55
2022/06/01 09:11:16;;;;;;;9.55;3.17;;;13.50;99.90;;;;;;4975266;28;20077;-56
2022/06/01 09:13:57;;;;;;;9.52;2.47;;;13.50;99.90;;;;;;4977707;28;20493;-54
2022/06/01 09:16:38;;;;;;;10.23;3.13;;;13.50;99.90;;;;;;4981501;28;20093;-55
2022/06/01 09:19:07;;;;;;;10.05;3.00;;;13.50;99.90;;;;;;4983894;28;20051;-56
2022/06/01 09:24:34;;;;;;;9.27;2.58;;;13.50;99.90;;;;;;4985452;28;20046;-56
2022/06/01 09:27:05;;;;;;;7.32;2.05;;;13.50;99.90;;;;;;4986066;28;20085;-54
2022/06/01 09:29:47;;;;;;;6.97;3.00;;;13.60;99.90;;;;;;4982966;28;20074;-56
2022/06/01 09:32:59;;;;;;;5.03;2.67;;;13.70;99.90;;;;;;4987476;28;20052;-57
2022/06/01 09:35:33;;;;;;;4.72;2.58;;;13.80;99.90;;;;;;4982145;28;20112;-57
2022/06/01 09:38:06;;;;;;;3.20;1.98;;;13.80;99.90;;;;;;4998510;28;20118;-57
2022/06/01 09:40:35;;;;;;;4.07;2.00;;;13.90;99.90;;;;;;4993304;28;20080;-57
2022/06/01 09:43:02;;;;;;;6.95;2.60;;;13.90;99.90;;;;;;4984185;28;20073;-55
2022/06/01 09:45:38;;;;;;;6.30;1.90;;;14.10;99.90;;;;;;4985900;28;20140;-56
2022/06/01 09:48:30;;;;;;;7.47;2.22;;;14.20;99.90;;;;;;4982460;28;20701;-56
2022/06/01 09:51:21;;;;;;;3.08;1.75;;;14.20;99.90;;;;;;4987857;28;20418;-57
2022/06/01 09:53:53;;;;;;;4.28;2.00;;;14.30;99.90;;;;;;4993215;28;20082;-55
2022/06/01 09:56:31;;;;;;;1.92;1.40;;;14.50;99.90;;;;;;4983265;28;20147;-55
2022/06/01 10:07:28;;;;;;;6.82;1.88;;;14.70;99.90;;;;;;4982852;28;20078;-56
2022/06/01 10:09:57;;;;;;;12.20;2.22;;;14.60;99.90;;;;;;4981243;28;20050;-55
2022/06/01 10:12:33;;;;;;;2.67;1.60;;;14.50;99.90;;;;;;4987212;28;20086;-57
2022/06/01 10:15:01;;;;;;;8.52;1.67;;;14.50;99.90;;;;;;4987864;28;20050;-57
2022/06/01 10:17:34;;;;;;;4.70;1.85;;;14.60;99.90;;;;;;4981482;28;20093;-57
2022/06/01 10:20:13;;;;;;;10.13;2.00;;;14.70;99.90;;;;;;4983016;28;20054;-57
2022/06/01 10:22:42;;;;;;;2.95;1.10;;;14.90;99.90;;;;;;4988435;28;20101;-58
2022/06/01 10:25:13;;;;;;;4.53;1.92;;;14.80;99.90;;;;;;4986150;28;20046;-57
2022/06/01 10:27:49;;;;;;;6.97;1.30;;;14.80;99.90;;;;;;4985315;28;20042;-60
2022/06/01 10:30:21;;;;;;;2.42;1.20;;;14.90;99.90;;;;;;4987062;28;20097;-57
2022/06/01 10:32:55;;;;;;;2.45;1.55;;;14.80;99.90;;;;;;4986647;28;20049;-55
2022/06/01 10:35:28;;;;;;;3.20;1.10;;;14.70;99.90;;;;;;4982761;28;20083;-55
2022/06/01 10:37:57;;;;;;;2.88;1.42;;;14.80;99.90;;;;;;4984622;28;20054;-54
2022/06/01 10:40:50;;;;;;;5.35;0.80;;;14.90;99.90;;;;;;4979192;28;20081;-57
2022/06/01 10:43:42;;;;;;;1.05;0.80;;;14.70;99.90;;;;;;4981182;28;20046;-55
2022/06/01 10:46:23;;;;;;;2.25;0.98;;;14.60;99.90;;;;;;4636819;28;10000170;-54
2022/06/01 10:49:09;;;;;;;2.72;1.40;;;14.50;99.90;;;;;;4983112;28;20054;-52
2022/06/01 10:51:36;;;;;;;1.83;0.80;;;14.50;99.90;;;;;;4978025;28;20490;-56
2022/06/01 10:54:08;;;;;;;3.35;1.08;;;14.50;99.90;;;;;;4984915;28;20085;-54
2022/06/01 10:56:34;;;;;;;5.55;1.17;;;14.50;99.90;;;;;;4987198;28;20074;-56
2022/06/01 10:59:03;;;;;;;3.97;1.48;;;14.50;99.90;;;;;;4987164;28;20133;-55
2022/06/01 11:01:30;;;;;;;2.13;1.10;;;14.60;99.90;;;;;;4981758;28;20042;-51
2022/06/01 11:04:22;;;;;;;7.72;1.27;;;14.50;99.90;;;;;;4986890;28;20657;-57
2022/06/01 11:07:07;;;;;;;4.15;1.10;;;14.50;99.90;;;;;;4985602;28;20050;-54
2022/06/01 11:09:55;;;;;;;4.53;1.33;;;14.40;99.90;;;;;;4978741;28;20081;-56
2022/06/01 11:12:49;;;;;;;1.00;0.70;;;14.40;99.90;;;;;;4983102;28;20181;-55
2022/06/01 11:15:44;;;;;;;6.10;1.08;;;14.20;99.90;;;;;;4979738;28;20466;-54
2022/06/01 11:18:18;;;;;;;;;;;14.20;99.90;;;;;;4987672;28;20104;-55
2022/06/01 11:20:49;;;;;;;;;;;14.20;99.90;;;;;;4987351;28;19987;-53
2022/06/01 11:23:36;;;;;;;4.53;1.35;;;14.20;99.90;;;;;;4978910;28;19985;-53
2022/06/01 11:26:09;;;;;;;2.20;1.30;;;14.20;99.90;;;;;;4978947;28;20126;-56
2022/06/01 11:29:02;;;;;;;2.97;1.52;;;14.20;99.90;;;;;;4987086;28;20058;-57
2022/06/01 11:31:28;;;;;;;3.22;1.60;;;14.20;99.90;;;;;;4981073;28;20117;-55
2022/06/01 11:34:01;;;;;;;6.88;2.00;;;14.20;99.90;;;;;;4985034;28;20053;-54
2022/06/01 11:36:44;;;;;;;3.17;1.63;;;14.20;99.90;;;;;;4985341;28;20129;-55
2022/06/01 11:39:29;;;;;;;4.10;1.70;;;14.20;99.90;;;;;;4978553;28;20118;-56
2022/06/01 11:42:14;;;;;;;6.18;2.42;;;14.40;99.90;;;;;;4986133;28;20055;-55
2022/06/01 11:44:47;;;;;;;5.07;2.70;;;14.40;99.90;;;;;;4983239;28;20069;-55
2022/06/01 11:47:16;;;;;;;5.93;1.98;;;14.60;99.90;;;;;;4974064;28;20134;-57
2022/06/01 11:50:11;;;;;;;5.85;1.88;;;14.70;99.90;;;;;;4984391;28;20101;-56
2022/06/01 11:52:52;;;;;;;3.80;2.03;;;14.80;99.90;;;;;;4987080;28;20153;-56
2022/06/01 11:55:34;;;;;;;4.85;1.80;;;15.00;99.90;;;;;;4984095;28;20054;-56
2022/06/01 11:58:19;;;;;;;3.00;1.52;;;15.10;99.90;;;;;;4985949;28;20058;-54
2022/06/01 12:00:47;;;;;;;2.28;1.58;;;15.30;99.90;;;;;;4987087;28;20169;-57
2022/06/01 12:03:17;;;;;;;5.75;1.77;;;15.40;99.90;;;;;;5000000;28;20062;-54
2022/06/01 12:06:08;;;;;;;2.50;0.95;;;15.60;99.90;;;;;;4987783;28;20062;-57
2022/06/01 12:08:56;;;;;;;3.45;1.27;;;15.70;99.90;;;;;;4978536;28;20109;-58
2022/06/01 12:11:41;;;;;;;2.75;1.10;;;15.70;99.90;;;;;;4983911;28;20066;-58
2022/06/01 12:14:30;;;;;;;5.18;1.30;;;15.90;99.90;;;;;;4981669;28;20050;-54
2022/06/01 12:17:15;;;;;;;6.65;1.60;;;15.80;99.90;;;;;;4986149;28;20108;-57
2022/06/01 12:19:45;;;;;;;2.55;1.30;;;15.70;99.90;;;;;;4983399;28;20135;-56
2022/06/01 12:28:33;;;;;;;3.97;1.50;;;16.00;99.90;;;;;;4982780;28;19965;-55
2022/06/01 12:31:23;;;;;;;4.28;1.73;;;15.80;99.90;;;;;;4988716;28;20116;-53
2022/06/01 12:34:34;;;;;;;5.22;2.30;;;15.80;99.90;;;;;;4988746;28;20049;-56
2022/06/01 12:37:08;;;;;;;2.67;1.70;;;16.00;99.90;;;;;;4968290;28;20137;-54
2022/06/01 12:39:35;;;;;;;3.38;1.70;;;16.20;99.90;;;;;;4987787;28;20081;-54
2022/06/01 12:42:05;;;;;;;4.50;1.40;;;16.30;99.90;;;;;;4983076;28;20065;-57
2022/06/01 12:44:32;;;;;;;1.35;1.10;;;16.30;99.90;;;;;;4984523;28;20050;-57
2022/06/01 12:46:59;;;;;;;3.05;1.50;;;16.20;99.90;;;;;;4975446;28;20075;-57
2022/06/01 12:49:33;;;;;;;2.45;1.23;;;16.30;99.90;;;;;;4989814;28;20974;-54
2022/06/01 12:52:04;;;;;;;2.45;1.38;;;16.40;99.90;;;;;;5004793;28;20052;-53
2022/06/01 12:54:39;;;;;;;2.40;0.98;;;16.50;99.90;;;;;;4989898;28;20101;-56
2022/06/01 12:57:08;;;;;;;1.13;0.90;;;16.60;99.90;;;;;;4989002;28;20129;-53
2022/06/01 12:59:36;;;;;;;1.05;0.65;;;16.80;99.90;;;;;;4979722;28;20125;-57
2022/06/01 13:02:11;;;;;;;7.65;0.70;;;16.90;99.90;;;;;;4986765;28;20070;-56
2022/06/01 13:04:39;;;;;;;1.13;0.55;;;16.90;99.60;;;;;;4984506;28;20080;-55
2022/06/01 13:07:06;;;;;;;1.80;0.57;;;17.10;99.90;;;;;;5002844;28;20073;-55
2022/06/01 13:09:34;;;;;;;1.45;0.60;;;17.20;97.60;;;;;;4983541;28;20172;-55
2022/06/01 13:12:03;;;;;;;2.97;0.80;;;17.20;96.90;;;;;;4986603;28;20125;-56
2022/06/01 13:14:32;;;;;;;1.63;0.60;;;17.40;98.90;;;;;;4981915;28;20057;-56
2022/06/01 13:17:10;;;;;;;1.67;0.60;;;17.30;97.70;;;;;;4980077;28;20093;-56
2022/06/01 13:19:39;;;;;;;3.03;1.17;;;17.30;97.10;;;;;;4988105;28;20125;-57
2022/06/01 13:22:06;;;;;;;2.85;1.20;;;17.50;99.40;;;;;;4981789;28;20699;-57
2022/06/01 13:24:56;;;;;;;5.25;1.35;;;17.80;99.90;;;;;;4988284;28;20138;-55
2022/06/01 13:27:23;;;;;;;4.30;1.67;;;18.10;98.10;;;;;;4988860;28;20145;-56
2022/06/01 13:29:52;;;;;;;3.95;0.93;;;18.10;99.90;;;;;;4987816;28;20078;-57
2022/06/01 13:32:19;;;;;;;3.28;1.00;;;18.00;99.90;;;;;;4978725;28;20129;-58
2022/06/01 13:34:51;;;;;;;3.13;1.45;;;17.80;99.90;;;;;;4987401;28;20077;-57
2022/06/01 13:37:22;;;;;;;5.75;1.42;;;17.70;99.90;;;;;;4987712;28;20133;-55
2022/06/01 13:40:06;;;;;;;3.70;1.50;;;17.60;99.90;;;;;;4989233;28;20493;-56
2022/06/01 13:42:38;;;;;;;4.35;1.30;;;17.50;99.80;;;;;;4987412;28;20065;-55
2022/06/01 13:45:06;;;;;;;2.30;1.05;;;17.40;99.90;;;;;;5003940;28;20137;-56
2022/06/01 13:47:40;;;;;;;2.20;1.33;;;17.30;99.90;;;;;;4982198;28;20567;-55